Terminal Aerodrome Forecast
Issued by NWS Atlanta, GA

Home | Current Version | Previous Version | Text Only | Print | Product List | Glossary On
Versions: 1 2 3 4 5 6 7 8 9 10 11 12 13 14 15 16 17 18 19 20 21 22 23 24 25 26 27 28 29 30 31 32 33 34 35 36
778
FTUS42 KFFC 090338 AAB
TAFATL
TAF AMD
KATL 090338Z 0904/1006 30012G20KT P6SM SCT050 BKN070
     FM091100 29012G25KT P6SM VCSH SCT025 BKN045 PROB30 0913/0918
      6SM -SHSN BKN025
     FM091800 29012G25KT P6SM BKN030 PROB30 0918/0923 6SM -SHSN
      BKN025
     FM092300 30012KT P6SM BKN030=

USA.gov is the U.S. government's official web portal to all federal, state and local government web resources and services.